createdAt,value
2023-09-24T00:00:11.228Z,20.70
2023-09-24T00:05:14.759Z,20.80
2023-09-24T00:10:17.318Z,20.70
2023-09-24T00:15:20.736Z,20.70
2023-09-24T00:20:22.473Z,20.70
2023-09-24T00:25:27.571Z,20.70
2023-09-24T00:30:29.925Z,20.70
2023-09-24T00:35:31.815Z,20.70
2023-09-24T00:40:33.527Z,20.70
2023-09-24T00:45:35.308Z,20.70
2023-09-24T00:50:42.306Z,20.70
2023-09-24T00:55:44.256Z,20.70
2023-09-24T01:00:47.181Z,20.70
2023-09-24T01:05:50.995Z,20.70
2023-09-24T01:10:53.623Z,20.70
2023-09-24T01:15:55.923Z,20.70
2023-09-24T01:20:57.983Z,20.70
2023-09-24T01:25:59.663Z,20.60
2023-09-24T01:31:01.343Z,20.60
2023-09-24T01:36:03.685Z,20.60
2023-09-24T01:41:07.094Z,20.60
2023-09-24T01:46:09.190Z,20.60
2023-09-24T01:51:13.990Z,20.60
2023-09-24T01:56:18.832Z,20.60
2023-09-24T02:01:20.583Z,20.60
2023-09-24T02:06:23.504Z,20.60
2023-09-24T02:11:25.500Z,20.60
2023-09-24T02:16:28.631Z,20.50
2023-09-24T02:21:31.698Z,20.50
2023-09-24T02:26:33.664Z,20.50
2023-09-24T02:31:35.363Z,20.50
2023-09-24T02:36:38.815Z,20.50
2023-09-24T02:41:41.795Z,20.50
2023-09-24T02:46:43.979Z,20.50
2023-09-24T02:51:45.750Z,20.50
2023-09-24T02:56:47.377Z,20.50
2023-09-24T03:01:49.044Z,20.50
2023-09-24T03:06:50.730Z,20.40
2023-09-24T03:11:52.914Z,20.50
2023-09-24T03:16:55.551Z,20.50
2023-09-24T03:21:57.663Z,20.50
2023-09-24T03:26:59.375Z,20.50
2023-09-24T03:32:01.130Z,20.50
2023-09-24T03:37:02.972Z,20.50
2023-09-24T03:42:05.388Z,20.50
2023-09-24T03:47:07.191Z,20.40
2023-09-24T03:52:11.242Z,20.50
2023-09-24T03:57:12.853Z,20.50
2023-09-24T04:02:16.133Z,20.50
2023-09-24T04:07:18.258Z,20.50
2023-09-24T04:12:19.851Z,20.50
2023-09-24T04:17:21.488Z,20.50
2023-09-24T04:22:23.511Z,20.50
2023-09-24T04:27:26.985Z,20.50
2023-09-24T04:32:29.236Z,20.50
2023-09-24T04:37:30.980Z,20.50
2023-09-24T04:42:33.073Z,20.50
2023-09-24T04:47:35.430Z,20.50
2023-09-24T04:52:40.177Z,20.50
2023-09-24T04:57:41.801Z,20.50
2023-09-24T05:02:44.338Z,20.50
2023-09-24T05:07:46.625Z,20.50
2023-09-24T05:12:48.627Z,20.50
2023-09-24T05:17:50.520Z,20.40
2023-09-24T05:22:52.179Z,20.40
2023-09-24T05:27:53.831Z,20.40
2023-09-24T05:32:55.653Z,20.40
2023-09-24T05:37:57.317Z,20.40
2023-09-24T05:42:59.265Z,20.40
2023-09-24T05:48:00.954Z,20.40
2023-09-24T05:53:02.901Z,20.40
2023-09-24T05:58:05.461Z,20.40
2023-09-24T06:03:07.917Z,20.40
2023-09-24T06:08:10.305Z,20.40
2023-09-24T06:13:17.394Z,20.40
2023-09-24T06:18:19.455Z,20.40
2023-09-24T06:23:22.976Z,20.30
2023-09-24T06:28:26.456Z,20.40
2023-09-24T06:33:28.612Z,20.30
2023-09-24T06:38:30.800Z,20.40
2023-09-24T06:43:32.980Z,20.40
2023-09-24T06:48:34.911Z,20.30
2023-09-24T06:53:39.058Z,20.30
2023-09-24T06:58:40.906Z,20.30
2023-09-24T07:03:42.597Z,20.40
2023-09-24T07:08:45.118Z,20.40
2023-09-24T07:13:47.570Z,20.40
2023-09-24T07:18:51.682Z,20.40
2023-09-24T07:23:57.652Z,20.40
2023-09-24T07:29:00.480Z,20.40
2023-09-24T07:34:03.418Z,20.40
2023-09-24T07:39:05.776Z,20.40
2023-09-24T07:44:08.942Z,20.40
2023-09-24T07:49:10.697Z,20.40
2023-09-24T07:54:12.499Z,20.40
2023-09-24T07:59:14.706Z,20.40
2023-09-24T08:04:17.655Z,20.40
2023-09-24T08:09:27.130Z,20.40
2023-09-24T08:14:29.541Z,20.40
2023-09-24T08:19:32.037Z,20.40
2023-09-24T08:24:33.908Z,20.40
2023-09-24T08:29:35.547Z,20.40
2023-09-24T08:34:37.807Z,20.40
2023-09-24T08:39:40.175Z,20.50
2023-09-24T08:44:42.107Z,20.50
2023-09-24T08:49:44.385Z,20.50
2023-09-24T08:54:47.752Z,20.50
2023-09-24T08:59:49.372Z,20.50
2023-09-24T09:04:51.535Z,20.50
2023-09-24T09:09:57.387Z,20.60
2023-09-24T09:14:59.214Z,20.60
2023-09-24T09:20:01.244Z,20.60
2023-09-24T09:25:05.323Z,20.70
2023-09-24T09:30:19.026Z,20.70
2023-09-24T09:35:20.860Z,20.70
2023-09-24T09:40:22.624Z,20.80
2023-09-24T09:45:24.498Z,20.90
2023-09-24T09:50:26.638Z,20.90
2023-09-24T09:55:28.576Z,21.00
2023-09-24T10:00:30.254Z,21.00
2023-09-24T10:05:32.237Z,21.10
2023-09-24T10:10:34.068Z,21.10
2023-09-24T10:15:35.699Z,21.20
2023-09-24T10:20:49.699Z,21.20
2023-09-24T10:25:51.451Z,21.30
2023-09-24T10:31:03.123Z,21.30
2023-09-24T10:36:25.390Z,21.30
2023-09-24T10:41:26.978Z,21.40
2023-09-24T10:46:31.670Z,21.30
2023-09-24T10:51:33.359Z,21.40
2023-09-24T10:56:34.994Z,21.40
2023-09-24T11:01:37.074Z,21.40
2023-09-24T11:06:38.881Z,21.40
2023-09-24T11:11:40.577Z,21.40
2023-09-24T11:16:42.391Z,21.50
2023-09-24T11:21:44.059Z,21.50
2023-09-24T11:26:46.144Z,21.50
2023-09-24T11:31:49.026Z,21.50
2023-09-24T11:36:55.084Z,21.50
2023-09-24T11:41:57.944Z,21.40
2023-09-24T11:46:59.648Z,21.40
2023-09-24T11:52:08.968Z,21.40
2023-09-24T11:57:11.202Z,21.40
2023-09-24T12:02:12.905Z,21.40
2023-09-24T12:07:14.621Z,21.30
2023-09-24T12:12:17.607Z,21.30
2023-09-24T12:17:20.613Z,21.30
2023-09-24T12:22:24.157Z,21.20
2023-09-24T12:27:27.655Z,21.20
2023-09-24T12:32:29.610Z,21.20
2023-09-24T12:37:33.184Z,21.20
2023-09-24T12:42:35.461Z,21.20
2023-09-24T12:47:40.661Z,21.20
2023-09-24T12:52:43.158Z,21.20
2023-09-24T12:57:46.170Z,21.20
2023-09-24T13:02:49.180Z,21.20
2023-09-24T13:07:51.113Z,21.30
2023-09-24T13:12:52.778Z,21.30
2023-09-24T13:17:54.478Z,21.40
2023-09-24T13:22:56.291Z,21.40
2023-09-24T13:27:57.915Z,21.40
2023-09-24T13:32:59.791Z,21.40
2023-09-24T13:38:01.485Z,21.40
2023-09-24T13:43:03.223Z,21.40
2023-09-24T13:48:05.082Z,21.40
2023-09-24T13:53:09.984Z,21.40
2023-09-24T13:58:12.266Z,21.40
2023-09-24T14:03:14.092Z,21.40
2023-09-24T14:08:34.659Z,21.40
2023-09-24T14:13:37.065Z,21.40
2023-09-24T14:18:39.176Z,21.30
2023-09-24T14:23:41.165Z,21.40
2023-09-24T14:28:42.807Z,21.40
2023-09-24T14:33:45.201Z,21.30
2023-09-24T14:38:48.213Z,21.40
2023-09-24T14:43:50.059Z,21.40
2023-09-24T14:48:52.306Z,21.30
2023-09-24T14:53:59.931Z,21.40
2023-09-24T14:59:02.250Z,21.40
2023-09-24T15:04:04.031Z,21.50
2023-09-24T15:09:05.902Z,21.50
2023-09-24T15:14:08.850Z,21.60
2023-09-24T15:19:10.833Z,21.70
2023-09-24T15:24:13.700Z,21.90
2023-09-24T15:29:17.072Z,22.00
2023-09-24T15:34:18.814Z,22.20
2023-09-24T15:39:20.584Z,22.50
2023-09-24T15:44:22.246Z,22.60
2023-09-24T15:49:23.872Z,22.70
2023-09-24T15:54:25.622Z,22.70
2023-09-24T15:59:27.323Z,22.80
2023-09-24T16:04:28.999Z,22.80
2023-09-24T16:09:30.653Z,22.90
2023-09-24T16:14:32.443Z,23.00
2023-09-24T16:19:34.248Z,23.00
2023-09-24T16:24:35.899Z,22.90
2023-09-24T16:29:39.123Z,22.90
2023-09-24T16:34:40.802Z,22.80
2023-09-24T16:39:42.424Z,22.70
2023-09-24T16:44:44.053Z,22.60
2023-09-24T16:49:46.250Z,22.60
2023-09-24T16:54:48.760Z,22.60
2023-09-24T16:59:50.426Z,22.50
2023-09-24T17:04:52.154Z,22.50
2023-09-24T17:09:53.892Z,22.50
2023-09-24T17:14:55.740Z,22.40
2023-09-24T17:19:57.424Z,22.40
2023-09-24T17:24:59.799Z,22.40
2023-09-24T17:30:05.171Z,22.30
2023-09-24T17:35:08.903Z,22.30
2023-09-24T17:40:11.526Z,22.30
2023-09-24T17:45:14.207Z,22.30
2023-09-24T17:50:16.327Z,22.20
2023-09-24T17:55:18.455Z,22.20
2023-09-24T18:00:20.277Z,22.10
2023-09-24T18:05:22.012Z,22.10
2023-09-24T18:10:23.683Z,22.10
2023-09-24T18:15:27.640Z,22.10
2023-09-24T18:20:30.089Z,22.00
2023-09-24T18:25:31.772Z,22.00
2023-09-24T18:30:38.644Z,21.90
2023-09-24T18:35:40.984Z,21.90
2023-09-24T18:40:42.660Z,21.90
2023-09-24T18:45:49.390Z,21.90
2023-09-24T18:50:51.445Z,21.80
2023-09-24T18:56:00.503Z,21.80
2023-09-24T19:01:09.006Z,21.80
2023-09-24T19:06:10.754Z,21.80
2023-09-24T19:11:12.531Z,21.80
2023-09-24T19:16:14.307Z,21.70
2023-09-24T19:21:16.491Z,21.70
2023-09-24T19:26:18.822Z,21.70
2023-09-24T19:31:21.068Z,21.70
2023-09-24T19:36:22.839Z,21.70
2023-09-24T19:41:24.478Z,21.60
2023-09-24T19:46:26.279Z,21.60
2023-09-24T19:51:28.219Z,21.60
2023-09-24T19:56:30.067Z,21.60
2023-09-24T20:01:31.812Z,21.60
2023-09-24T20:06:33.522Z,21.60
2023-09-24T20:11:37.246Z,21.50
2023-09-24T20:16:39.857Z,21.50
2023-09-24T20:21:41.481Z,21.50
2023-09-24T20:26:45.623Z,21.50
2023-09-24T20:31:48.563Z,21.50
2023-09-24T20:36:50.250Z,21.50
2023-09-24T20:41:54.949Z,21.40
2023-09-24T20:46:56.894Z,21.40
2023-09-24T20:51:58.535Z,21.40
2023-09-24T20:57:00.173Z,21.40
2023-09-24T21:02:04.589Z,21.40
2023-09-24T21:07:07.033Z,21.40
2023-09-24T21:12:09.246Z,21.40
2023-09-24T21:17:10.880Z,21.40
2023-09-24T21:22:12.505Z,21.40
2023-09-24T21:27:14.628Z,21.40
2023-09-24T21:32:20.026Z,21.40
2023-09-24T21:37:21.738Z,21.40
2023-09-24T21:42:23.789Z,21.40
2023-09-24T21:47:25.492Z,21.40
2023-09-24T21:52:27.267Z,21.40
2023-09-24T21:57:29.103Z,21.40
2023-09-24T22:02:31.047Z,21.40
2023-09-24T22:07:32.990Z,21.40
2023-09-24T22:12:34.992Z,21.40
2023-09-24T22:17:37.530Z,21.50
2023-09-24T22:22:39.740Z,21.40
2023-09-24T22:27:44.417Z,21.40
2023-09-24T22:32:46.854Z,21.40
2023-09-24T22:37:48.802Z,21.40
2023-09-24T22:42:50.643Z,21.40
2023-09-24T22:47:52.440Z,21.40
2023-09-24T22:52:54.223Z,21.40
2023-09-24T22:57:56.119Z,21.40
2023-09-24T23:02:57.760Z,21.40
2023-09-24T23:07:59.997Z,21.40
2023-09-24T23:13:01.693Z,21.40
2023-09-24T23:18:03.692Z,21.30
2023-09-24T23:23:05.449Z,21.30
2023-09-24T23:28:08.070Z,21.30
2023-09-24T23:33:11.999Z,21.30
2023-09-24T23:38:13.866Z,21.30
2023-09-24T23:43:17.630Z,21.30
2023-09-24T23:48:19.261Z,21.20
2023-09-24T23:53:21.044Z,21.20
2023-09-24T23:58:26.269Z,21.20
